sensor_id;sensor_type;location;lat;lon;timestamp;pressure;altitude;pressure_sealevel;temperature;humidity
43824;BME280;29470;53.550;9.926;2023-04-10T00:01:55;102113.84;;;12.05;67.37
43824;BME280;29470;53.550;9.926;2023-04-10T00:06:59;102105.75;;;11.81;68.08
43824;BME280;29470;53.550;9.926;2023-04-10T00:12:02;102091.56;;;11.67;69.83
43824;BME280;29470;53.550;9.926;2023-04-10T00:17:05;102090.34;;;12.14;67.65
43824;BME280;29470;53.550;9.926;2023-04-10T00:22:09;102079.50;;;11.57;69.51
43824;BME280;29470;53.550;9.926;2023-04-10T00:27:12;102083.00;;;11.68;69.00
43824;BME280;29470;53.550;9.926;2023-04-10T00:32:15;102075.97;;;12.17;67.43
43824;BME280;29470;53.550;9.926;2023-04-10T00:37:19;102084.34;;;12.56;66.00
43824;BME280;29470;53.550;9.926;2023-04-10T00:42:22;102082.66;;;12.46;65.82
43824;BME280;29470;53.550;9.926;2023-04-10T00:47:25;102071.81;;;12.19;66.87
43824;BME280;29470;53.550;9.926;2023-04-10T00:52:31;102080.34;;;12.39;66.22
43824;BME280;29470;53.550;9.926;2023-04-10T00:57:34;102076.59;;;12.04;67.90
43824;BME280;29470;53.550;9.926;2023-04-10T01:02:37;102074.53;;;12.42;66.60
43824;BME280;29470;53.550;9.926;2023-04-10T01:07:53;102063.53;;;12.13;67.21
43824;BME280;29470;53.550;9.926;2023-04-10T01:13:03;102068.13;;;11.66;69.54
43824;BME280;29470;53.550;9.926;2023-04-10T01:18:14;102070.06;;;11.78;68.75
43824;BME280;29470;53.550;9.926;2023-04-10T01:28:55;102069.03;;;11.76;68.77
43824;BME280;29470;53.550;9.926;2023-04-10T01:34:04;102064.25;;;11.81;68.26
43824;BME280;29470;53.550;9.926;2023-04-10T01:39:09;102067.50;;;11.89;67.86
43824;BME280;29470;53.550;9.926;2023-04-10T01:44:14;102056.22;;;11.68;68.58
43824;BME280;29470;53.550;9.926;2023-04-10T01:49:20;102053.44;;;11.56;69.07
43824;BME280;29470;53.550;9.926;2023-04-10T01:54:34;102041.00;;;11.52;70.17
43824;BME280;29470;53.550;9.926;2023-04-10T01:59:39;102032.38;;;11.82;68.31
43824;BME280;29470;53.550;9.926;2023-04-10T02:04:41;102032.47;;;11.42;69.80
43824;BME280;29470;53.550;9.926;2023-04-10T02:09:53;102024.84;;;11.75;67.87
43824;BME280;29470;53.550;9.926;2023-04-10T02:15:01;102026.13;;;11.59;68.74
43824;BME280;29470;53.550;9.926;2023-04-10T02:20:07;102019.16;;;11.69;68.31
43824;BME280;29470;53.550;9.926;2023-04-10T02:25:13;102021.34;;;11.95;67.50
43824;BME280;29470;53.550;9.926;2023-04-10T02:30:17;102023.16;;;11.65;67.98
43824;BME280;29470;53.550;9.926;2023-04-10T02:35:21;102012.78;;;11.44;68.80
43824;BME280;29470;53.550;9.926;2023-04-10T02:40:24;102006.97;;;11.68;67.84
43824;BME280;29470;53.550;9.926;2023-04-10T02:45:43;102017.50;;;11.19;69.37
43824;BME280;29470;53.550;9.926;2023-04-10T02:50:55;102001.38;;;11.42;68.10
43824;BME280;29470;53.550;9.926;2023-04-10T02:55:58;101996.69;;;11.28;69.29
43824;BME280;29470;53.550;9.926;2023-04-10T03:01:05;101991.16;;;10.94;70.37
43824;BME280;29470;53.550;9.926;2023-04-10T03:06:13;101979.53;;;10.99;69.89
43824;BME280;29470;53.550;9.926;2023-04-10T03:11:18;101973.94;;;10.94;69.83
43824;BME280;29470;53.550;9.926;2023-04-10T03:16:23;101970.69;;;10.86;70.24
43824;BME280;29470;53.550;9.926;2023-04-10T03:21:26;101957.09;;;10.89;70.29
43824;BME280;29470;53.550;9.926;2023-04-10T03:26:29;101955.00;;;11.25;69.02
43824;BME280;29470;53.550;9.926;2023-04-10T03:31:33;101956.88;;;11.07;69.32
43824;BME280;29470;53.550;9.926;2023-04-10T03:36:36;101951.03;;;10.88;69.77
43824;BME280;29470;53.550;9.926;2023-04-10T03:41:39;101948.72;;;10.62;70.09
43824;BME280;29470;53.550;9.926;2023-04-10T03:46:43;101949.56;;;11.22;69.29
43824;BME280;29470;53.550;9.926;2023-04-10T03:51:46;101937.50;;;10.72;70.43
43824;BME280;29470;53.550;9.926;2023-04-10T03:56:49;101943.81;;;10.55;70.83
43824;BME280;29470;53.550;9.926;2023-04-10T04:01:56;101928.31;;;10.75;70.50
43824;BME280;29470;53.550;9.926;2023-04-10T04:06:59;101940.03;;;11.01;69.24
43824;BME280;29470;53.550;9.926;2023-04-10T04:12:16;101927.78;;;10.69;70.41
43824;BME280;29470;53.550;9.926;2023-04-10T04:17:35;101937.66;;;11.34;66.79
43824;BME280;29470;53.550;9.926;2023-04-10T04:22:41;101929.47;;;10.69;68.97
43824;BME280;29470;53.550;9.926;2023-04-10T04:28:04;101924.22;;;10.48;69.63
43824;BME280;29470;53.550;9.926;2023-04-10T04:33:08;101925.81;;;10.56;69.47
43824;BME280;29470;53.550;9.926;2023-04-10T04:38:29;101930.91;;;10.75;68.99
43824;BME280;29470;53.550;9.926;2023-04-10T04:44:10;101933.50;;;10.75;69.02
43824;BME280;29470;53.550;9.926;2023-04-10T04:49:32;101935.94;;;11.14;67.94
43824;BME280;29470;53.550;9.926;2023-04-10T04:55:00;101934.63;;;11.09;67.52
43824;BME280;29470;53.550;9.926;2023-04-10T05:00:26;101936.41;;;10.99;67.17
43824;BME280;29470;53.550;9.926;2023-04-10T05:05:44;101936.63;;;10.82;67.69
43824;BME280;29470;53.550;9.926;2023-04-10T05:11:00;101936.69;;;11.02;67.44
43824;BME280;29470;53.550;9.926;2023-04-10T05:16:29;101940.22;;;11.55;65.02
43824;BME280;29470;53.550;9.926;2023-04-10T05:21:53;101934.25;;;11.87;63.69
43824;BME280;29470;53.550;9.926;2023-04-10T05:26:56;101930.19;;;10.97;66.15
43824;BME280;29470;53.550;9.926;2023-04-10T05:32:06;101930.09;;;12.10;63.06
43824;BME280;29470;53.550;9.926;2023-04-10T05:37:33;101929.47;;;12.02;62.44
43824;BME280;29470;53.550;9.926;2023-04-10T05:42:56;101920.41;;;12.94;59.50
43824;BME280;29470;53.550;9.926;2023-04-10T05:48:07;101918.09;;;12.87;58.13
43824;BME280;29470;53.550;9.926;2023-04-10T05:53:31;101924.31;;;12.89;58.28
43824;BME280;29470;53.550;9.926;2023-04-10T05:58:54;101914.19;;;12.92;57.86
43824;BME280;29470;53.550;9.926;2023-04-10T06:04:29;101910.13;;;12.74;57.95
43824;BME280;29470;53.550;9.926;2023-04-10T06:09:35;101911.88;;;12.85;58.25
43824;BME280;29470;53.550;9.926;2023-04-10T06:14:41;101897.38;;;13.33;56.30
43824;BME280;29470;53.550;9.926;2023-04-10T06:19:45;101886.44;;;13.72;54.54
43824;BME280;29470;53.550;9.926;2023-04-10T06:24:49;101887.41;;;14.45;52.97
43824;BME280;29470;53.550;9.926;2023-04-10T06:29:52;101867.94;;;15.67;49.02
43824;BME280;29470;53.550;9.926;2023-04-10T06:34:57;101872.13;;;15.90;48.30
43824;BME280;29470;53.550;9.926;2023-04-10T06:40:07;101858.16;;;16.87;46.51
43824;BME280;29470;53.550;9.926;2023-04-10T06:45:11;101848.78;;;17.19;44.82
43824;BME280;29470;53.550;9.926;2023-04-10T06:50:14;101851.13;;;17.74;42.93
43824;BME280;29470;53.550;9.926;2023-04-10T06:55:18;101857.63;;;19.09;41.97
43824;BME280;29470;53.550;9.926;2023-04-10T07:00:21;101853.25;;;20.53;38.98
43824;BME280;29470;53.550;9.926;2023-04-10T07:05:24;101844.19;;;20.66;38.63
43824;BME280;29470;53.550;9.926;2023-04-10T07:10:29;101841.31;;;22.73;35.33
43824;BME280;29470;53.550;9.926;2023-04-10T07:15:31;101838.63;;;23.22;34.08
43824;BME280;29470;53.550;9.926;2023-04-10T07:20:34;101830.28;;;23.34;32.57
43824;BME280;29470;53.550;9.926;2023-04-10T07:25:40;101832.97;;;22.61;34.40
43824;BME280;29470;53.550;9.926;2023-04-10T07:30:43;101827.63;;;22.84;33.56
43824;BME280;29470;53.550;9.926;2023-04-10T07:35:46;101819.03;;;23.15;32.79
43824;BME280;29470;53.550;9.926;2023-04-10T07:40:55;101814.75;;;24.58;31.40
43824;BME280;29470;53.550;9.926;2023-04-10T07:45:58;101804.09;;;24.86;30.64
43824;BME280;29470;53.550;9.926;2023-04-10T07:51:01;101800.47;;;25.52;29.91
43824;BME280;29470;53.550;9.926;2023-04-10T07:56:07;101800.63;;;24.89;30.40
43824;BME280;29470;53.550;9.926;2023-04-10T08:01:11;101804.44;;;22.75;33.13
43824;BME280;29470;53.550;9.926;2023-04-10T08:06:14;101801.09;;;19.14;38.63
43824;BME280;29470;53.550;9.926;2023-04-10T08:11:26;101804.81;;;18.51;41.25
43824;BME280;29470;53.550;9.926;2023-04-10T08:16:31;101795.66;;;18.11;41.80
43824;BME280;29470;53.550;9.926;2023-04-10T08:21:34;101794.06;;;18.30;42.01
43824;BME280;29470;53.550;9.926;2023-04-10T08:26:38;101775.72;;;17.99;41.78
43824;BME280;29470;53.550;9.926;2023-04-10T08:31:41;101777.50;;;18.15;42.09
43824;BME280;29470;53.550;9.926;2023-04-10T08:36:44;101769.31;;;18.91;41.01
43824;BME280;29470;53.550;9.926;2023-04-10T08:41:48;101770.16;;;18.40;41.89
43824;BME280;29470;53.550;9.926;2023-04-10T08:46:51;101763.41;;;18.95;41.89
43824;BME280;29470;53.550;9.926;2023-04-10T08:51:56;101762.63;;;18.30;42.29
43824;BME280;29470;53.550;9.926;2023-04-10T08:57:00;101751.16;;;18.45;41.49
43824;BME280;29470;53.550;9.926;2023-04-10T09:02:05;101740.56;;;18.76;40.73
43824;BME280;29470;53.550;9.926;2023-04-10T09:07:08;101732.50;;;18.72;40.41
43824;BME280;29470;53.550;9.926;2023-04-10T09:12:12;101722.84;;;18.89;40.11
43824;BME280;29470;53.550;9.926;2023-04-10T09:17:17;101716.63;;;19.03;39.55
43824;BME280;29470;53.550;9.926;2023-04-10T09:22:28;101711.59;;;19.44;39.54
43824;BME280;29470;53.550;9.926;2023-04-10T09:27:34;101687.75;;;19.57;38.55
43824;BME280;29470;53.550;9.926;2023-04-10T09:32:39;101682.50;;;19.57;38.55
43824;BME280;29470;53.550;9.926;2023-04-10T09:37:43;101667.97;;;20.02;38.16
43824;BME280;29470;53.550;9.926;2023-04-10T09:42:48;101654.66;;;20.58;36.81
43824;BME280;29470;53.550;9.926;2023-04-10T09:48:02;101632.31;;;20.89;34.71
43824;BME280;29470;53.550;9.926;2023-04-10T09:53:05;101609.69;;;20.73;33.71
43824;BME280;29470;53.550;9.926;2023-04-10T09:58:11;101605.50;;;21.21;33.64
43824;BME280;29470;53.550;9.926;2023-04-10T10:03:15;101600.66;;;21.31;33.23
43824;BME280;29470;53.550;9.926;2023-04-10T10:08:19;101590.16;;;21.09;33.33
43824;BME280;29470;53.550;9.926;2023-04-10T10:13:27;101593.44;;;21.26;34.96
43824;BME280;29470;53.550;9.926;2023-04-10T10:18:38;101579.19;;;21.21;33.61
43824;BME280;29470;53.550;9.926;2023-04-10T10:23:47;101570.44;;;21.20;32.11
43824;BME280;29470;53.550;9.926;2023-04-10T10:28:57;101568.72;;;21.22;32.22
43824;BME280;29470;53.550;9.926;2023-04-10T10:34:00;101551.53;;;21.55;31.75
43824;BME280;29470;53.550;9.926;2023-04-10T10:39:20;101521.34;;;21.93;30.90
43824;BME280;29470;53.550;9.926;2023-04-10T10:44:35;101503.53;;;21.86;30.85
43824;BME280;29470;53.550;9.926;2023-04-10T10:49:53;101503.06;;;21.72;30.88
43824;BME280;29470;53.550;9.926;2023-04-10T10:54:56;101505.78;;;20.81;31.45
43824;BME280;29470;53.550;9.926;2023-04-10T11:00:02;101495.75;;;20.94;30.76
43824;BME280;29470;53.550;9.926;2023-04-10T11:05:06;101466.28;;;21.51;30.22
43824;BME280;29470;53.550;9.926;2023-04-10T11:10:17;101465.38;;;21.73;29.46
43824;BME280;29470;53.550;9.926;2023-04-10T11:15:22;101450.41;;;21.48;29.91
43824;BME280;29470;53.550;9.926;2023-04-10T11:20:26;101446.72;;;20.94;30.33
43824;BME280;29470;53.550;9.926;2023-04-10T11:25:45;101422.75;;;22.13;29.40
43824;BME280;29470;53.550;9.926;2023-04-10T11:30:52;101413.69;;;21.77;29.27
43824;BME280;29470;53.550;9.926;2023-04-10T11:35:56;101399.75;;;21.80;29.05
43824;BME280;29470;53.550;9.926;2023-04-10T11:41:01;101387.94;;;22.21;28.93
43824;BME280;29470;53.550;9.926;2023-04-10T11:46:07;101400.50;;;21.75;28.71
43824;BME280;29470;53.550;9.926;2023-04-10T11:51:12;101399.63;;;22.02;28.12
43824;BME280;29470;53.550;9.926;2023-04-10T11:56:16;101379.34;;;22.00;27.45
43824;BME280;29470;53.550;9.926;2023-04-10T12:01:22;101374.19;;;22.03;28.19
43824;BME280;29470;53.550;9.926;2023-04-10T12:06:25;101356.63;;;22.60;27.62
43824;BME280;29470;53.550;9.926;2023-04-10T12:11:28;101345.94;;;22.55;27.85
43824;BME280;29470;53.550;9.926;2023-04-10T12:16:33;101341.22;;;22.45;27.13
43824;BME280;29470;53.550;9.926;2023-04-10T12:21:37;101325.25;;;22.69;27.73
43824;BME280;29470;53.550;9.926;2023-04-10T12:26:46;101330.84;;;23.14;26.74
43824;BME280;29470;53.550;9.926;2023-04-10T12:31:51;101320.03;;;22.42;27.37
43824;BME280;29470;53.550;9.926;2023-04-10T12:36:54;101314.19;;;22.23;26.97
43824;BME280;29470;53.550;9.926;2023-04-10T12:42:11;101302.41;;;22.70;26.53
43824;BME280;29470;53.550;9.926;2023-04-10T12:47:16;101303.09;;;23.27;25.87
43824;BME280;29470;53.550;9.926;2023-04-10T12:52:21;101297.88;;;22.96;25.86
43824;BME280;29470;53.550;9.926;2023-04-10T12:57:25;101294.66;;;23.40;25.95
43824;BME280;29470;53.550;9.926;2023-04-10T13:02:30;101286.25;;;23.57;26.01
43824;BME280;29470;53.550;9.926;2023-04-10T13:07:34;101264.97;;;23.17;25.99
43824;BME280;29470;53.550;9.926;2023-04-10T13:12:37;101261.81;;;22.95;26.48
43824;BME280;29470;53.550;9.926;2023-04-10T13:17:42;101251.81;;;22.83;26.80
43824;BME280;29470;53.550;9.926;2023-04-10T13:22:48;101231.38;;;23.43;26.15
43824;BME280;29470;53.550;9.926;2023-04-10T13:27:56;101223.19;;;22.99;26.75
43824;BME280;29470;53.550;9.926;2023-04-10T13:33:01;101208.56;;;22.76;27.19
43824;BME280;29470;53.550;9.926;2023-04-10T13:38:04;101199.59;;;22.70;26.82
43824;BME280;29470;53.550;9.926;2023-04-10T13:43:07;101188.31;;;23.46;25.83
43824;BME280;29470;53.550;9.926;2023-04-10T13:48:12;101176.91;;;23.12;26.51
43824;BME280;29470;53.550;9.926;2023-04-10T13:53:19;101159.34;;;22.77;26.99
43824;BME280;29470;53.550;9.926;2023-04-10T13:58:22;101145.78;;;23.32;27.29
43824;BME280;29470;53.550;9.926;2023-04-10T14:03:28;101145.22;;;23.10;26.86
43824;BME280;29470;53.550;9.926;2023-04-10T14:08:31;101126.31;;;22.91;27.31
43824;BME280;29470;53.550;9.926;2023-04-10T14:13:34;101119.00;;;23.18;27.39
43824;BME280;29470;53.550;9.926;2023-04-10T14:18:39;101103.19;;;22.81;27.51
43824;BME280;29470;53.550;9.926;2023-04-10T14:23:45;101113.19;;;22.58;28.16
43824;BME280;29470;53.550;9.926;2023-04-10T14:28:48;101083.84;;;23.19;28.12
43824;BME280;29470;53.550;9.926;2023-04-10T14:33:52;101072.16;;;22.69;28.95
43824;BME280;29470;53.550;9.926;2023-04-10T14:38:55;101053.44;;;23.33;28.56
43824;BME280;29470;53.550;9.926;2023-04-10T14:43:58;101028.88;;;22.98;29.07
43824;BME280;29470;53.550;9.926;2023-04-10T14:49:03;101024.41;;;23.33;28.66
43824;BME280;29470;53.550;9.926;2023-04-10T14:54:06;101007.47;;;23.66;28.59
43824;BME280;29470;53.550;9.926;2023-04-10T14:59:12;100995.25;;;23.27;28.97
43824;BME280;29470;53.550;9.926;2023-04-10T15:04:17;101000.84;;;22.63;29.85
43824;BME280;29470;53.550;9.926;2023-04-10T15:09:23;100974.47;;;22.63;29.95
43824;BME280;29470;53.550;9.926;2023-04-10T15:14:26;100979.75;;;22.28;30.20
43824;BME280;29470;53.550;9.926;2023-04-10T15:19:30;100967.22;;;22.92;29.95
43824;BME280;29470;53.550;9.926;2023-04-10T15:24:34;100959.88;;;22.77;30.50
43824;BME280;29470;53.550;9.926;2023-04-10T15:29:48;100938.13;;;22.88;30.13
43824;BME280;29470;53.550;9.926;2023-04-10T15:34:54;100922.78;;;23.13;29.05
43824;BME280;29470;53.550;9.926;2023-04-10T15:39:57;100903.78;;;22.85;28.44
43824;BME280;29470;53.550;9.926;2023-04-10T15:45:02;100884.34;;;22.41;28.58
43824;BME280;29470;53.550;9.926;2023-04-10T15:50:09;100867.69;;;22.42;28.37
43824;BME280;29470;53.550;9.926;2023-04-10T15:55:15;100868.13;;;22.61;28.58
43824;BME280;29470;53.550;9.926;2023-04-10T16:32:43;100812.59;;;21.09;30.29
43824;BME280;29470;53.550;9.926;2023-04-10T16:52:09;100770.19;;;20.97;30.93
43824;BME280;29470;53.550;9.926;2023-04-10T16:57:12;100760.66;;;21.00;30.68
43824;BME280;29470;53.550;9.926;2023-04-10T17:02:18;100757.13;;;20.37;31.56
43824;BME280;29470;53.550;9.926;2023-04-10T17:07:23;100741.72;;;20.19;32.33
43824;BME280;29470;53.550;9.926;2023-04-10T17:12:26;100734.69;;;20.49;32.24
43824;BME280;29470;53.550;9.926;2023-04-10T17:17:29;100727.56;;;20.14;32.82
43824;BME280;29470;53.550;9.926;2023-04-10T17:22:35;100732.34;;;20.59;32.61
43824;BME280;29470;53.550;9.926;2023-04-10T17:27:40;100738.56;;;20.31;33.32
43824;BME280;29470;53.550;9.926;2023-04-10T17:32:42;100727.59;;;20.46;33.33
43824;BME280;29470;53.550;9.926;2023-04-10T17:37:47;100711.81;;;20.14;33.66
43824;BME280;29470;53.550;9.926;2023-04-10T17:42:50;100714.28;;;20.40;33.91
43824;BME280;29470;53.550;9.926;2023-04-10T17:47:53;100695.50;;;20.26;34.48
43824;BME280;29470;53.550;9.926;2023-04-10T17:52:58;100688.19;;;19.57;35.88
43824;BME280;29470;53.550;9.926;2023-04-10T17:58:00;100691.72;;;19.87;35.67
43824;BME280;29470;53.550;9.926;2023-04-10T18:03:03;100689.38;;;19.67;35.97
43824;BME280;29470;53.550;9.926;2023-04-10T18:08:11;100688.16;;;19.85;35.92
43824;BME280;29470;53.550;9.926;2023-04-10T18:13:16;100678.25;;;19.47;36.36
43824;BME280;29470;53.550;9.926;2023-04-10T18:18:25;100676.75;;;19.26;37.39
43824;BME280;29470;53.550;9.926;2023-04-10T18:56:59;100646.69;;;19.17;39.77
43824;BME280;29470;53.550;9.926;2023-04-10T19:02:11;100633.19;;;18.52;41.01
43824;BME280;29470;53.550;9.926;2023-04-10T19:07:14;100612.97;;;19.00;40.30
43824;BME280;29470;53.550;9.926;2023-04-10T19:12:18;100622.03;;;18.84;40.83
43824;BME280;29470;53.550;9.926;2023-04-10T19:17:24;100616.09;;;18.64;41.08
43824;BME280;29470;53.550;9.926;2023-04-10T19:22:27;100622.75;;;18.80;40.57
43824;BME280;29470;53.550;9.926;2023-04-10T19:27:31;100602.97;;;18.90;40.54
43824;BME280;29470;53.550;9.926;2023-04-10T19:32:42;100589.75;;;18.85;40.86
43824;BME280;29470;53.550;9.926;2023-04-10T19:37:49;100581.38;;;18.44;41.32
43824;BME280;29470;53.550;9.926;2023-04-10T19:42:54;100569.63;;;18.84;40.86
43824;BME280;29470;53.550;9.926;2023-04-10T19:48:00;100565.53;;;18.66;41.15
43824;BME280;29470;53.550;9.926;2023-04-10T19:53:03;100553.16;;;18.88;40.66
43824;BME280;29470;53.550;9.926;2023-04-10T19:58:07;100543.97;;;18.22;41.39
43824;BME280;29470;53.550;9.926;2023-04-10T20:03:25;100542.47;;;18.82;40.52
43824;BME280;29470;53.550;9.926;2023-04-10T20:08:28;100533.97;;;19.17;40.00
43824;BME280;29470;53.550;9.926;2023-04-10T20:13:33;100529.75;;;18.67;40.75
43824;BME280;29470;53.550;9.926;2023-04-10T20:18:37;100505.00;;;19.41;39.23
43824;BME280;29470;53.550;9.926;2023-04-10T20:23:40;100483.34;;;18.90;39.91
43824;BME280;29470;53.550;9.926;2023-04-10T20:28:45;100466.41;;;18.79;40.48
43824;BME280;29470;53.550;9.926;2023-04-10T20:33:47;100466.97;;;18.70;40.30
43824;BME280;29470;53.550;9.926;2023-04-10T20:38:51;100446.97;;;18.72;40.30
43824;BME280;29470;53.550;9.926;2023-04-10T20:43:56;100429.50;;;19.00;39.75
43824;BME280;29470;53.550;9.926;2023-04-10T20:48:59;100422.44;;;18.70;40.07
43824;BME280;29470;53.550;9.926;2023-04-10T20:54:01;100419.72;;;18.96;39.22
43824;BME280;29470;53.550;9.926;2023-04-10T20:59:06;100407.81;;;18.48;40.26
43824;BME280;29470;53.550;9.926;2023-04-10T21:04:09;100397.47;;;18.81;39.71
43824;BME280;29470;53.550;9.926;2023-04-10T21:09:12;100398.13;;;18.18;40.55
43824;BME280;29470;53.550;9.926;2023-04-10T21:14:16;100402.50;;;18.74;39.51
43824;BME280;29470;53.550;9.926;2023-04-10T21:19:19;100399.72;;;18.69;40.02
43824;BME280;29470;53.550;9.926;2023-04-10T21:24:21;100408.94;;;18.56;40.39
43824;BME280;29470;53.550;9.926;2023-04-10T21:29:26;100419.94;;;18.44;41.46
43824;BME280;29470;53.550;9.926;2023-04-10T21:34:28;100412.09;;;18.46;41.37
43824;BME280;29470;53.550;9.926;2023-04-10T21:39:37;100407.09;;;17.74;42.99
43824;BME280;29470;53.550;9.926;2023-04-10T21:44:41;100398.03;;;17.38;45.16
43824;BME280;29470;53.550;9.926;2023-04-10T21:49:44;100402.81;;;17.50;45.35
43824;BME280;29470;53.550;9.926;2023-04-10T21:54:49;100398.94;;;17.39;45.79
43824;BME280;29470;53.550;9.926;2023-04-10T21:59:53;100385.13;;;17.69;47.04
43824;BME280;29470;53.550;9.926;2023-04-10T22:04:56;100401.28;;;17.57;47.59
43824;BME280;29470;53.550;9.926;2023-04-10T22:09:59;100414.75;;;16.74;50.39
43824;BME280;29470;53.550;9.926;2023-04-10T22:15:04;100407.88;;;16.76;50.49
43824;BME280;29470;53.550;9.926;2023-04-10T22:20:09;100430.88;;;16.19;53.11
43824;BME280;29470;53.550;9.926;2023-04-10T22:25:11;100427.53;;;15.61;58.61
43824;BME280;29470;53.550;9.926;2023-04-10T22:30:16;100421.03;;;15.71;61.01
43824;BME280;29470;53.550;9.926;2023-04-10T22:35:19;100413.00;;;15.67;63.05
43824;BME280;29470;53.550;9.926;2023-04-10T22:40:22;100398.84;;;15.81;63.08
43824;BME280;29470;53.550;9.926;2023-04-10T22:45:26;100391.19;;;15.65;63.41
43824;BME280;29470;53.550;9.926;2023-04-10T22:50:29;100380.53;;;15.80;64.94
43824;BME280;29470;53.550;9.926;2023-04-10T22:55:32;100367.91;;;15.89;63.33
43824;BME280;29470;53.550;9.926;2023-04-10T23:00:36;100360.31;;;16.16;62.12
43824;BME280;29470;53.550;9.926;2023-04-10T23:05:39;100342.88;;;15.73;64.64
43824;BME280;29470;53.550;9.926;2023-04-10T23:10:42;100330.09;;;16.00;63.50
43824;BME280;29470;53.550;9.926;2023-04-10T23:15:48;100323.41;;;15.43;65.01
43824;BME280;29470;53.550;9.926;2023-04-10T23:20:51;100318.78;;;16.00;62.01
43824;BME280;29470;53.550;9.926;2023-04-10T23:25:57;100309.53;;;15.44;65.29
43824;BME280;29470;53.550;9.926;2023-04-10T23:31:02;100300.69;;;16.26;62.47
43824;BME280;29470;53.550;9.926;2023-04-10T23:36:05;100273.13;;;15.67;64.43
43824;BME280;29470;53.550;9.926;2023-04-10T23:41:08;100273.44;;;15.54;64.44
43824;BME280;29470;53.550;9.926;2023-04-10T23:46:12;100266.38;;;15.30;66.53
43824;BME280;29470;53.550;9.926;2023-04-10T23:51:15;100265.59;;;15.32;66.23
43824;BME280;29470;53.550;9.926;2023-04-10T23:56:19;100262.59;;;15.23;67.78
